aviador You're here:

GCLA Decoded Metar

LA PALMA in SPAIN
Report Time2018-02-20 13:30:00
UTC Time2018-02-20 13:50:18
Flight Rules vfr VFR
Wind020° at 14 kt
W.Decomp.*RWY 01: 13.4 kt HW 4.1 kt RCW
W.Rank020° ranks 1
Current wind is above 020° avg. (11.1)
Visibility9999 m
Phenomena:N/A
Clouds:Few 030 Hf
Expected CloudBase > 3,600 ft AGL from Temp-Dew spread
CeilingNone
Temp20°C (ISA +5)
Dew Point11°C (56% RH)
AAT15.3°C
QNH1018 hPa
Density Alt719 ft
Elevation102 ft
Report Wrong Elevation
Raw Report
GCLA 201330Z 02014KT 350V050 9999 FEW030 20/11 Q1018=

Extra information for GCLA:More info

Metar Taf Metar & Taf Last 4 Metars F.Rules Stats Wind Profile Meteogram Temp Stats Airport Information Weather charts Add Link Nearby VenuesMetar ALERT Operation Metar Decoded Social comments